CHGR51 KJAX-KJAX
Flight info
| Callsign | CHGR51 |
|---|---|
| Flight time | 0h 15m |
| Altitude | VFR/30 |
| Route | |
| Aircraft |
Departure
| Time | 2026-05-03 23:18 |
|---|---|
| Airport | Jacksonville International Airport (KJAX) |
Arrival
| Time | 2026-05-03 23:33 |
|---|---|
| Airport | Jacksonville International Airport (KJAX) |
| Time | Latitude | Longitude | Altitude | Speed | Heading |
|---|---|---|---|---|---|
| 2026-05-03 23:10 | 30.48789 | -81.70028 | 17 ft | 0 kts | 38° |
| 2026-05-03 23:14 | 30.48803 | -81.70018 | 17 ft | 4 kts | 18° |
| 2026-05-03 23:14 | 30.48843 | -81.70029 | 17 ft | 9 kts | 310° |
| 2026-05-03 23:15 | 30.48899 | -81.70112 | 17 ft | 10 kts | 312° |
| 2026-05-03 23:15 | 30.48953 | -81.70179 | 17 ft | 10 kts | 312° |
| 2026-05-03 23:15 | 30.48991 | -81.70209 | 17 ft | 8 kts | 27° |
| 2026-05-03 23:15 | 30.49066 | -81.70166 | 17 ft | 17 kts | 26° |
| 2026-05-03 23:16 | 30.49164 | -81.70111 | 17 ft | 17 kts | 32° |
| 2026-05-03 23:16 | 30.49267 | -81.70016 | 19 ft | 19 kts | 34° |
| 2026-05-03 23:16 | 30.49360 | -81.69936 | 21 ft | 12 kts | 6° |
| 2026-05-03 23:16 | 30.49447 | -81.69918 | 21 ft | 11 kts | 360° |
| 2026-05-03 23:17 | 30.49524 | -81.69943 | 21 ft | 12 kts | 337° |
| 2026-05-03 23:17 | 30.49566 | -81.69959 | 21 ft | 6 kts | 350° |
| 2026-05-03 23:17 | 30.49636 | -81.69951 | 21 ft | 11 kts | 61° |
| 2026-05-03 23:17 | 30.49714 | -81.69708 | 21 ft | 83 kts | 69° |
| 2026-05-03 23:18 | 30.49982 | -81.68856 | 189 ft | 124 kts | 70° |
| 2026-05-03 23:18 | 30.50387 | -81.67909 | 403 ft | 148 kts | 46° |
| 2026-05-03 23:18 | 30.51399 | -81.67693 | 739 ft | 161 kts | 341° |
| 2026-05-03 23:18 | 30.52379 | -81.68329 | 1136 ft | 162 kts | 316° |
| 2026-05-03 23:19 | 30.52665 | -81.69566 | 1224 ft | 170 kts | 258° |
| 2026-05-03 23:19 | 30.52352 | -81.70931 | 1220 ft | 175 kts | 251° |
| 2026-05-03 23:19 | 30.52007 | -81.72237 | 1221 ft | 168 kts | 251° |
| 2026-05-03 23:19 | 30.51540 | -81.73413 | 1154 ft | 150 kts | 220° |
| 2026-05-03 23:20 | 30.50609 | -81.73711 | 843 ft | 130 kts | 172° |
| 2026-05-03 23:20 | 30.49833 | -81.73553 | 635 ft | 99 kts | 155° |
| 2026-05-03 23:20 | 30.49385 | -81.72984 | 608 ft | 103 kts | 109° |
| 2026-05-03 23:20 | 30.49234 | -81.72217 | 484 ft | 96 kts | 93° |
| 2026-05-03 23:21 | 30.49232 | -81.71468 | 339 ft | 94 kts | 81° |
| 2026-05-03 23:21 | 30.49395 | -81.70742 | 233 ft | 93 kts | 72° |
| 2026-05-03 23:21 | 30.49604 | -81.70064 | 78 ft | 91 kts | 71° |
| 2026-05-03 23:21 | 30.49809 | -81.69396 | 61 ft | 97 kts | 71° |
| 2026-05-03 23:22 | 30.50617 | -81.67601 | 1051 ft | 137 kts | 20° |
| 2026-05-03 23:22 | 30.51410 | -81.68143 | 1403 ft | 162 kts | 297° |
| 2026-05-03 23:22 | 30.51640 | -81.69460 | 1722 ft | 169 kts | 264° |
| 2026-05-03 23:23 | 30.51525 | -81.70785 | 1850 ft | 160 kts | 261° |
| 2026-05-03 23:23 | 30.51388 | -81.72037 | 1811 ft | 155 kts | 259° |
| 2026-05-03 23:23 | 30.51070 | -81.73183 | 1725 ft | 143 kts | 220° |
| 2026-05-03 23:23 | 30.50122 | -81.72957 | 1130 ft | 175 kts | 140° |
| 2026-05-03 23:24 | 30.49359 | -81.71853 | 567 ft | 174 kts | 112° |
| 2026-05-03 23:24 | 30.49464 | -81.70528 | 154 ft | 166 kts | 72° |
| 2026-05-03 23:24 | 30.49820 | -81.69363 | 97 ft | 141 kts | 71° |
| 2026-05-03 23:24 | 30.50172 | -81.68394 | 262 ft | 124 kts | 51° |
| 2026-05-03 23:25 | 30.50993 | -81.68208 | 591 ft | 141 kts | 347° |
| 2026-05-03 23:25 | 30.51697 | -81.68880 | 828 ft | 140 kts | 281° |
| 2026-05-03 23:25 | 30.51505 | -81.70010 | 810 ft | 148 kts | 247° |
| 2026-05-03 23:25 | 30.51143 | -81.71097 | 822 ft | 141 kts | 247° |
| 2026-05-03 23:26 | 30.50792 | -81.72087 | 773 ft | 127 kts | 242° |
| 2026-05-03 23:26 | 30.50372 | -81.73023 | 731 ft | 135 kts | 237° |
| 2026-05-03 23:26 | 30.49830 | -81.73824 | 873 ft | 125 kts | 198° |
| 2026-05-03 23:26 | 30.49035 | -81.73575 | 668 ft | 122 kts | 136° |
| 2026-05-03 23:27 | 30.48752 | -81.72862 | 651 ft | 93 kts | 76° |
| 2026-05-03 23:27 | 30.48977 | -81.72128 | 529 ft | 92 kts | 69° |
| 2026-05-03 23:27 | 30.49185 | -81.71449 | 326 ft | 86 kts | 71° |
| 2026-05-03 23:27 | 30.49382 | -81.70805 | 200 ft | 84 kts | 73° |
| 2026-05-03 23:28 | 30.49576 | -81.70161 | 109 ft | 85 kts | 71° |
| 2026-05-03 23:28 | 30.49759 | -81.69554 | 21 ft | 69 kts | 71° |
| 2026-05-03 23:28 | 30.49948 | -81.68947 | 132 ft | 106 kts | 69° |
| 2026-05-03 23:28 | 30.50201 | -81.68108 | 748 ft | 116 kts | 66° |
| 2026-05-03 23:29 | 30.50998 | -81.67828 | 1218 ft | 152 kts | 347° |
| 2026-05-03 23:29 | 30.52117 | -81.68203 | 1461 ft | 180 kts | 344° |
| 2026-05-03 23:29 | 30.53298 | -81.68682 | 1880 ft | 177 kts | 334° |
| 2026-05-03 23:29 | 30.53875 | -81.69801 | 2288 ft | 168 kts | 266° |
| 2026-05-03 23:30 | 30.53688 | -81.71165 | 2459 ft | 175 kts | 252° |
| 2026-05-03 23:30 | 30.53303 | -81.72533 | 2602 ft | 183 kts | 246° |
| 2026-05-03 23:30 | 30.52814 | -81.73885 | 2388 ft | 178 kts | 243° |
| 2026-05-03 23:30 | 30.51987 | -81.74822 | 2028 ft | 165 kts | 194° |
| 2026-05-03 23:31 | 30.50838 | -81.74915 | 1477 ft | 163 kts | 175° |
| 2026-05-03 23:31 | 30.49836 | -81.74814 | 1261 ft | 132 kts | 168° |
| 2026-05-03 23:31 | 30.49068 | -81.74435 | 956 ft | 110 kts | 131° |
| 2026-05-03 23:31 | 30.48747 | -81.73717 | 693 ft | 98 kts | 98° |
| 2026-05-03 23:32 | 30.48759 | -81.72942 | 565 ft | 95 kts | 77° |
| 2026-05-03 23:32 | 30.48941 | -81.72234 | 447 ft | 89 kts | 70° |
| 2026-05-03 23:32 | 30.49149 | -81.71558 | 332 ft | 90 kts | 71° |
| 2026-05-03 23:32 | 30.49362 | -81.70866 | 220 ft | 89 kts | 72° |
| 2026-05-03 23:33 | 30.49566 | -81.70191 | 100 ft | 88 kts | 71° |
| 2026-05-03 23:33 | 30.49764 | -81.69537 | 21 ft | 75 kts | 71° |
| 2026-05-03 23:33 | 30.49882 | -81.69144 | 21 ft | 37 kts | 71° |
| 2026-05-03 23:33 | 30.49959 | -81.68898 | 21 ft | 25 kts | 68° |
| 2026-05-03 23:34 | 30.50014 | -81.68702 | 21 ft | 20 kts | 75° |
| 2026-05-03 23:34 | 30.50024 | -81.68541 | 21 ft | 19 kts | 110° |
| 2026-05-03 23:34 | 30.49969 | -81.68457 | 21 ft | 2 kts | 146° |
| 2026-05-03 23:34 | 30.49946 | -81.68447 | 21 ft | 7 kts | 205° |
| 2026-05-03 23:35 | 30.49902 | -81.68501 | 21 ft | 8 kts | 260° |
| 2026-05-03 23:35 | 30.49886 | -81.68562 | 21 ft | 9 kts | 247° |
| 2026-05-03 23:35 | 30.49856 | -81.68655 | 21 ft | 15 kts | 249° |
| 2026-05-03 23:35 | 30.49816 | -81.68790 | 21 ft | 18 kts | 250° |
| 2026-05-03 23:36 | 30.49772 | -81.68932 | 21 ft | 18 kts | 251° |
| 2026-05-03 23:36 | 30.49729 | -81.69074 | 21 ft | 18 kts | 250° |
| 2026-05-03 23:36 | 30.49699 | -81.69176 | 21 ft | 12 kts | 248° |
| 2026-05-03 23:36 | 30.49669 | -81.69276 | 21 ft | 15 kts | 250° |
| 2026-05-03 23:37 | 30.49636 | -81.69381 | 21 ft | 13 kts | 248° |
| 2026-05-03 23:37 | 30.49606 | -81.69484 | 21 ft | 11 kts | 247° |
| 2026-05-03 23:37 | 30.49599 | -81.69504 | 21 ft | 0 kts | 240° |
| 2026-05-03 23:39 | 30.49591 | -81.69527 | 21 ft | 9 kts | 250° |
| 2026-05-03 23:39 | 30.49554 | -81.69643 | 21 ft | 16 kts | 252° |
| 2026-05-03 23:40 | 30.49513 | -81.69778 | 21 ft | 17 kts | 259° |
| 2026-05-03 23:40 | 30.49495 | -81.69831 | 21 ft | 0 kts | 227° |
| 2026-05-03 23:40 | 30.49464 | -81.69909 | 21 ft | 17 kts | 211° |
| 2026-05-03 23:40 | 30.49337 | -81.69955 | 21 ft | 18 kts | 221° |
| 2026-05-03 23:41 | 30.49264 | -81.70017 | 19 ft | 9 kts | 213° |
| 2026-05-03 23:41 | 30.49188 | -81.70094 | 18 ft | 18 kts | 215° |
| 2026-05-03 23:41 | 30.49067 | -81.70167 | 17 ft | 19 kts | 208° |
| 2026-05-03 23:41 | 30.48955 | -81.70238 | 17 ft | 16 kts | 219° |
| 2026-05-03 23:42 | 30.48889 | -81.70253 | 17 ft | 8 kts | 135° |
| 2026-05-03 23:42 | 30.48902 | -81.70198 | 17 ft | 6 kts | 43° |
| 2026-05-03 23:42 | 30.48911 | -81.70190 | 17 ft | 0 kts | 42° |